sensor_id;sensor_type;location;lat;lon;timestamp;P1;durP1;ratioP1;P2;durP2;ratioP2
10174;SDS011;18221;38.704;0.152;2022-08-18T00:12:29;10.40;;;7.80;;
10174;SDS011;18221;38.704;0.152;2022-08-18T00:15:01;11.23;;;7.50;;
10174;SDS011;18221;38.704;0.152;2022-08-18T00:17:30;10.83;;;7.60;;
10174;SDS011;18221;38.704;0.152;2022-08-18T00:19:59;10.80;;;7.73;;
10174;SDS011;18221;38.704;0.152;2022-08-18T00:22:27;10.60;;;7.17;;
10174;SDS011;18221;38.704;0.152;2022-08-18T00:24:55;8.47;;;5.77;;
10174;SDS011;18221;38.704;0.152;2022-08-18T00:27:24;8.23;;;5.20;;
10174;SDS011;18221;38.704;0.152;2022-08-18T00:29:57;9.80;;;5.60;;
10174;SDS011;18221;38.704;0.152;2022-08-18T00:32:28;11.13;;;5.53;;
10174;SDS011;18221;38.704;0.152;2022-08-18T00:35:03;11.33;;;5.83;;
10174;SDS011;18221;38.704;0.152;2022-08-18T00:37:34;12.50;;;5.47;;
10174;SDS011;18221;38.704;0.152;2022-08-18T00:40:03;12.40;;;5.80;;
10174;SDS011;18221;38.704;0.152;2022-08-18T00:42:36;14.63;;;4.87;;
10174;SDS011;18221;38.704;0.152;2022-08-18T00:45:11;11.00;;;5.20;;
10174;SDS011;18221;38.704;0.152;2022-08-18T00:47:43;7.43;;;4.40;;
10174;SDS011;18221;38.704;0.152;2022-08-18T00:50:12;9.37;;;5.00;;
10174;SDS011;18221;38.704;0.152;2022-08-18T00:52:45;12.60;;;5.27;;
10174;SDS011;18221;38.704;0.152;2022-08-18T00:55:19;9.47;;;4.90;;
10174;SDS011;18221;38.704;0.152;2022-08-18T00:57:51;8.80;;;4.60;;
10174;SDS011;18221;38.704;0.152;2022-08-18T01:00:26;9.67;;;5.43;;
10174;SDS011;18221;38.704;0.152;2022-08-18T01:02:55;13.23;;;5.63;;
10174;SDS011;18221;38.704;0.152;2022-08-18T01:05:30;12.93;;;5.47;;
10174;SDS011;18221;38.704;0.152;2022-08-18T01:08:05;9.93;;;5.10;;
10174;SDS011;18221;38.704;0.152;2022-08-18T01:10:38;11.07;;;4.80;;
10174;SDS011;18221;38.704;0.152;2022-08-18T01:13:09;10.47;;;5.20;;
10174;SDS011;18221;38.704;0.152;2022-08-18T01:15:37;9.10;;;5.30;;
10174;SDS011;18221;38.704;0.152;2022-08-18T01:18:06;9.80;;;5.87;;
10174;SDS011;18221;38.704;0.152;2022-08-18T01:20:58;14.00;;;6.47;;
10174;SDS011;18221;38.704;0.152;2022-08-18T01:23:59;10.37;;;6.33;;
10174;SDS011;18221;38.704;0.152;2022-08-18T01:26:33;10.90;;;6.37;;
10174;SDS011;18221;38.704;0.152;2022-08-18T01:29:04;7.83;;;6.33;;
10174;SDS011;18221;38.704;0.152;2022-08-18T01:31:37;11.50;;;6.50;;
10174;SDS011;18221;38.704;0.152;2022-08-18T01:34:09;8.80;;;5.90;;
10174;SDS011;18221;38.704;0.152;2022-08-18T01:36:38;8.93;;;6.00;;
10174;SDS011;18221;38.704;0.152;2022-08-18T01:39:10;8.30;;;6.17;;
10174;SDS011;18221;38.704;0.152;2022-08-18T01:41:39;10.50;;;7.27;;
10174;SDS011;18221;38.704;0.152;2022-08-18T01:44:07;12.13;;;7.40;;
10174;SDS011;18221;38.704;0.152;2022-08-18T01:46:36;13.10;;;7.50;;
10174;SDS011;18221;38.704;0.152;2022-08-18T01:49:06;11.47;;;7.30;;
10174;SDS011;18221;38.704;0.152;2022-08-18T01:51:37;13.47;;;7.03;;
10174;SDS011;18221;38.704;0.152;2022-08-18T01:54:11;11.30;;;8.07;;
10174;SDS011;18221;38.704;0.152;2022-08-18T01:56:41;10.90;;;7.87;;
10174;SDS011;18221;38.704;0.152;2022-08-18T01:59:10;9.93;;;7.93;;
10174;SDS011;18221;38.704;0.152;2022-08-18T02:01:39;9.83;;;7.77;;
10174;SDS011;18221;38.704;0.152;2022-08-18T02:04:10;12.90;;;8.67;;
10174;SDS011;18221;38.704;0.152;2022-08-18T02:06:40;9.30;;;7.80;;
10174;SDS011;18221;38.704;0.152;2022-08-18T02:09:08;8.93;;;7.73;;
10174;SDS011;18221;38.704;0.152;2022-08-18T02:11:38;12.07;;;8.20;;
10174;SDS011;18221;38.704;0.152;2022-08-18T02:14:05;13.90;;;8.10;;
10174;SDS011;18221;38.704;0.152;2022-08-18T02:16:33;10.33;;;8.30;;
10174;SDS011;18221;38.704;0.152;2022-08-18T02:19:01;9.80;;;8.00;;
10174;SDS011;18221;38.704;0.152;2022-08-18T02:21:29;14.40;;;8.13;;
10174;SDS011;18221;38.704;0.152;2022-08-18T02:23:57;12.37;;;8.57;;
10174;SDS011;18221;38.704;0.152;2022-08-18T02:26:26;11.67;;;8.03;;
10174;SDS011;18221;38.704;0.152;2022-08-18T02:28:55;12.83;;;7.87;;
10174;SDS011;18221;38.704;0.152;2022-08-18T02:31:23;11.63;;;8.10;;
10174;SDS011;18221;38.704;0.152;2022-08-18T02:33:52;9.67;;;8.00;;
10174;SDS011;18221;38.704;0.152;2022-08-18T02:36:21;8.50;;;7.60;;
10174;SDS011;18221;38.704;0.152;2022-08-18T02:38:49;10.10;;;7.80;;
10174;SDS011;18221;38.704;0.152;2022-08-18T02:41:17;9.97;;;7.90;;
10174;SDS011;18221;38.704;0.152;2022-08-18T02:43:47;12.00;;;7.83;;
10174;SDS011;18221;38.704;0.152;2022-08-18T02:46:15;9.53;;;7.60;;
10174;SDS011;18221;38.704;0.152;2022-08-18T02:48:43;12.67;;;7.70;;
10174;SDS011;18221;38.704;0.152;2022-08-18T02:51:12;10.50;;;7.77;;
10174;SDS011;18221;38.704;0.152;2022-08-18T02:53:43;12.57;;;7.77;;
10174;SDS011;18221;38.704;0.152;2022-08-18T02:56:14;9.10;;;7.73;;
10174;SDS011;18221;38.704;0.152;2022-08-18T02:58:50;13.97;;;8.20;;
10174;SDS011;18221;38.704;0.152;2022-08-18T03:01:22;12.67;;;8.17;;
10174;SDS011;18221;38.704;0.152;2022-08-18T03:03:57;13.07;;;7.20;;
10174;SDS011;18221;38.704;0.152;2022-08-18T03:06:26;16.73;;;8.20;;
10174;SDS011;18221;38.704;0.152;2022-08-18T03:08:55;13.47;;;7.73;;
10174;SDS011;18221;38.704;0.152;2022-08-18T03:11:24;9.77;;;7.47;;
10174;SDS011;18221;38.704;0.152;2022-08-18T03:13:56;13.17;;;7.03;;
10174;SDS011;18221;38.704;0.152;2022-08-18T03:16:25;9.50;;;7.03;;
10174;SDS011;18221;38.704;0.152;2022-08-18T03:18:57;10.77;;;6.80;;
10174;SDS011;18221;38.704;0.152;2022-08-18T03:21:27;12.20;;;7.80;;
10174;SDS011;18221;38.704;0.152;2022-08-18T03:24:00;11.50;;;8.00;;
10174;SDS011;18221;38.704;0.152;2022-08-18T03:26:29;13.27;;;8.67;;
10174;SDS011;18221;38.704;0.152;2022-08-18T03:29:00;10.70;;;7.60;;
10174;SDS011;18221;38.704;0.152;2022-08-18T03:31:29;12.87;;;8.87;;
10174;SDS011;18221;38.704;0.152;2022-08-18T03:33:57;11.23;;;8.73;;
10174;SDS011;18221;38.704;0.152;2022-08-18T03:36:27;16.27;;;8.60;;
10174;SDS011;18221;38.704;0.152;2022-08-18T03:38:58;10.33;;;8.67;;
10174;SDS011;18221;38.704;0.152;2022-08-18T03:41:29;12.80;;;8.40;;
10174;SDS011;18221;38.704;0.152;2022-08-18T03:43:58;11.90;;;8.10;;
10174;SDS011;18221;38.704;0.152;2022-08-18T03:46:29;12.57;;;8.07;;
10174;SDS011;18221;38.704;0.152;2022-08-18T03:48:57;10.53;;;8.13;;
10174;SDS011;18221;38.704;0.152;2022-08-18T03:51:27;11.93;;;7.87;;
10174;SDS011;18221;38.704;0.152;2022-08-18T03:53:58;9.03;;;7.80;;
10174;SDS011;18221;38.704;0.152;2022-08-18T03:56:30;11.50;;;8.27;;
10174;SDS011;18221;38.704;0.152;2022-08-18T03:59:05;12.17;;;8.73;;
10174;SDS011;18221;38.704;0.152;2022-08-18T04:01:36;11.67;;;8.97;;
10174;SDS011;18221;38.704;0.152;2022-08-18T04:04:09;18.93;;;9.50;;
10174;SDS011;18221;38.704;0.152;2022-08-18T04:06:41;15.20;;;11.03;;
10174;SDS011;18221;38.704;0.152;2022-08-18T04:09:14;19.70;;;14.20;;
10174;SDS011;18221;38.704;0.152;2022-08-18T04:11:44;24.60;;;20.27;;
10174;SDS011;18221;38.704;0.152;2022-08-18T04:14:15;25.10;;;22.07;;
10174;SDS011;18221;38.704;0.152;2022-08-18T04:16:46;28.07;;;24.40;;
10174;SDS011;18221;38.704;0.152;2022-08-18T04:19:14;34.80;;;28.37;;
10174;SDS011;18221;38.704;0.152;2022-08-18T04:21:43;33.03;;;26.90;;
10174;SDS011;18221;38.704;0.152;2022-08-18T04:24:12;32.30;;;27.47;;
10174;SDS011;18221;38.704;0.152;2022-08-18T04:26:41;30.70;;;25.60;;
10174;SDS011;18221;38.704;0.152;2022-08-18T04:29:12;27.67;;;24.77;;
10174;SDS011;18221;38.704;0.152;2022-08-18T04:31:43;27.50;;;24.60;;
10174;SDS011;18221;38.704;0.152;2022-08-18T04:34:12;26.37;;;23.57;;
10174;SDS011;18221;38.704;0.152;2022-08-18T04:36:41;27.43;;;23.47;;
10174;SDS011;18221;38.704;0.152;2022-08-18T04:39:10;26.97;;;24.13;;
10174;SDS011;18221;38.704;0.152;2022-08-18T04:41:40;27.33;;;24.47;;
10174;SDS011;18221;38.704;0.152;2022-08-18T04:44:10;26.73;;;23.83;;
10174;SDS011;18221;38.704;0.152;2022-08-18T04:46:42;25.77;;;23.07;;
10174;SDS011;18221;38.704;0.152;2022-08-18T04:49:13;24.97;;;22.23;;
10174;SDS011;18221;38.704;0.152;2022-08-18T04:51:43;23.93;;;20.80;;
10174;SDS011;18221;38.704;0.152;2022-08-18T04:54:34;23.10;;;20.90;;
10174;SDS011;18221;38.704;0.152;2022-08-18T04:57:08;21.83;;;19.57;;
10174;SDS011;18221;38.704;0.152;2022-08-18T04:59:40;22.70;;;18.37;;
10174;SDS011;18221;38.704;0.152;2022-08-18T05:02:13;18.80;;;16.83;;
10174;SDS011;18221;38.704;0.152;2022-08-18T05:04:43;20.07;;;16.80;;
10174;SDS011;18221;38.704;0.152;2022-08-18T05:07:13;18.20;;;16.00;;
10174;SDS011;18221;38.704;0.152;2022-08-18T05:09:43;15.93;;;14.33;;
10174;SDS011;18221;38.704;0.152;2022-08-18T05:12:12;14.37;;;12.87;;
10174;SDS011;18221;38.704;0.152;2022-08-18T05:14:42;13.77;;;11.43;;
10174;SDS011;18221;38.704;0.152;2022-08-18T05:17:13;12.53;;;11.23;;
10174;SDS011;18221;38.704;0.152;2022-08-18T05:19:41;15.83;;;10.57;;
10174;SDS011;18221;38.704;0.152;2022-08-18T05:22:10;11.77;;;9.37;;
10174;SDS011;18221;38.704;0.152;2022-08-18T05:24:42;11.73;;;9.50;;
10174;SDS011;18221;38.704;0.152;2022-08-18T05:27:10;11.17;;;8.83;;
10174;SDS011;18221;38.704;0.152;2022-08-18T05:29:38;13.93;;;8.70;;
10174;SDS011;18221;38.704;0.152;2022-08-18T05:32:06;11.80;;;8.73;;
10174;SDS011;18221;38.704;0.152;2022-08-18T05:34:36;11.87;;;8.50;;
10174;SDS011;18221;38.704;0.152;2022-08-18T05:37:08;12.43;;;8.53;;
10174;SDS011;18221;38.704;0.152;2022-08-18T05:39:51;12.30;;;9.13;;
10174;SDS011;18221;38.704;0.152;2022-08-18T05:42:26;11.33;;;8.80;;
10174;SDS011;18221;38.704;0.152;2022-08-18T05:45:00;13.67;;;9.00;;
10174;SDS011;18221;38.704;0.152;2022-08-18T05:47:37;12.63;;;9.30;;
10174;SDS011;18221;38.704;0.152;2022-08-18T05:50:07;11.90;;;8.40;;
10174;SDS011;18221;38.704;0.152;2022-08-18T05:52:42;8.93;;;8.03;;
10174;SDS011;18221;38.704;0.152;2022-08-18T05:55:20;8.90;;;8.00;;
10174;SDS011;18221;38.704;0.152;2022-08-18T05:58:13;10.30;;;8.93;;
10174;SDS011;18221;38.704;0.152;2022-08-18T06:00:47;9.53;;;8.30;;
10174;SDS011;18221;38.704;0.152;2022-08-18T06:03:21;11.40;;;8.53;;
10174;SDS011;18221;38.704;0.152;2022-08-18T06:05:58;12.10;;;8.63;;
10174;SDS011;18221;38.704;0.152;2022-08-18T06:08:31;16.13;;;8.50;;
10174;SDS011;18221;38.704;0.152;2022-08-18T06:11:06;11.70;;;8.40;;
10174;SDS011;18221;38.704;0.152;2022-08-18T06:13:35;9.10;;;8.10;;
10174;SDS011;18221;38.704;0.152;2022-08-18T06:16:09;10.33;;;8.43;;
10174;SDS011;18221;38.704;0.152;2022-08-18T06:18:49;10.93;;;8.13;;
10174;SDS011;18221;38.704;0.152;2022-08-18T06:21:32;11.83;;;6.93;;
10174;SDS011;18221;38.704;0.152;2022-08-18T06:24:15;10.33;;;6.90;;
10174;SDS011;18221;38.704;0.152;2022-08-18T06:26:53;7.70;;;6.90;;
10174;SDS011;18221;38.704;0.152;2022-08-18T06:29:31;10.77;;;7.33;;
10174;SDS011;18221;38.704;0.152;2022-08-18T06:32:21;10.80;;;8.77;;
10174;SDS011;18221;38.704;0.152;2022-08-18T06:35:18;9.30;;;7.73;;
10174;SDS011;18221;38.704;0.152;2022-08-18T06:38:03;10.47;;;7.13;;
10174;SDS011;18221;38.704;0.152;2022-08-18T06:41:10;7.40;;;6.50;;
10174;SDS011;18221;38.704;0.152;2022-08-18T06:43:45;10.30;;;7.40;;
10174;SDS011;18221;38.704;0.152;2022-08-18T06:46:27;8.67;;;7.20;;
10174;SDS011;18221;38.704;0.152;2022-08-18T06:49:07;9.43;;;7.00;;
10174;SDS011;18221;38.704;0.152;2022-08-18T06:51:40;9.63;;;6.87;;
10174;SDS011;18221;38.704;0.152;2022-08-18T06:54:25;8.90;;;6.63;;
10174;SDS011;18221;38.704;0.152;2022-08-18T06:56:56;7.23;;;6.57;;
10174;SDS011;18221;38.704;0.152;2022-08-18T06:59:25;9.40;;;6.57;;
10174;SDS011;18221;38.704;0.152;2022-08-18T07:01:57;12.90;;;7.00;;
10174;SDS011;18221;38.704;0.152;2022-08-18T07:04:42;8.40;;;5.90;;
10174;SDS011;18221;38.704;0.152;2022-08-18T07:07:30;8.83;;;6.17;;
10174;SDS011;18221;38.704;0.152;2022-08-18T07:10:05;7.17;;;5.40;;
10174;SDS011;18221;38.704;0.152;2022-08-18T07:13:06;7.17;;;5.80;;
10174;SDS011;18221;38.704;0.152;2022-08-18T07:15:42;8.50;;;5.67;;
10174;SDS011;18221;38.704;0.152;2022-08-18T07:18:12;7.53;;;5.67;;
10174;SDS011;18221;38.704;0.152;2022-08-18T07:20:48;11.17;;;5.83;;
10174;SDS011;18221;38.704;0.152;2022-08-18T07:23:22;7.33;;;6.20;;
10174;SDS011;18221;38.704;0.152;2022-08-18T07:26:01;7.70;;;6.43;;
10174;SDS011;18221;38.704;0.152;2022-08-18T07:28:36;10.27;;;6.03;;
10174;SDS011;18221;38.704;0.152;2022-08-18T07:31:13;12.20;;;5.80;;
10174;SDS011;18221;38.704;0.152;2022-08-18T07:33:53;8.27;;;6.10;;
10174;SDS011;18221;38.704;0.152;2022-08-18T07:36:29;8.87;;;5.67;;
10174;SDS011;18221;38.704;0.152;2022-08-18T07:39:07;7.23;;;5.20;;
10174;SDS011;18221;38.704;0.152;2022-08-18T07:41:47;7.23;;;4.83;;
10174;SDS011;18221;38.704;0.152;2022-08-18T07:44:22;13.97;;;4.70;;
10174;SDS011;18221;38.704;0.152;2022-08-18T07:47:05;5.33;;;4.30;;
10174;SDS011;18221;38.704;0.152;2022-08-18T07:49:50;7.35;;;3.78;;
10174;SDS011;18221;38.704;0.152;2022-08-18T07:52:24;5.10;;;3.03;;
10174;SDS011;18221;38.704;0.152;2022-08-18T07:54:58;5.90;;;3.13;;
10174;SDS011;18221;38.704;0.152;2022-08-18T07:57:41;3.67;;;2.40;;
10174;SDS011;18221;38.704;0.152;2022-08-18T08:00:19;4.72;;;1.70;;
10174;SDS011;18221;38.704;0.152;2022-08-18T08:02:55;5.40;;;1.70;;
10174;SDS011;18221;38.704;0.152;2022-08-18T08:05:42;6.50;;;1.90;;
10174;SDS011;18221;38.704;0.152;2022-08-18T08:08:19;4.80;;;1.40;;
10174;SDS011;18221;38.704;0.152;2022-08-18T08:11:02;2.37;;;1.50;;
10174;SDS011;18221;38.704;0.152;2022-08-18T08:13:51;5.53;;;1.70;;
10174;SDS011;18221;38.704;0.152;2022-08-18T08:16:42;5.30;;;1.40;;
10174;SDS011;18221;38.704;0.152;2022-08-18T08:19:26;3.70;;;1.60;;
10174;SDS011;18221;38.704;0.152;2022-08-18T08:22:15;4.37;;;1.70;;
10174;SDS011;18221;38.704;0.152;2022-08-18T08:24:54;3.47;;;1.40;;
10174;SDS011;18221;38.704;0.152;2022-08-18T08:27:37;3.70;;;1.40;;
10174;SDS011;18221;38.704;0.152;2022-08-18T08:30:25;4.97;;;1.60;;
10174;SDS011;18221;38.704;0.152;2022-08-18T08:33:02;3.23;;;1.80;;
10174;SDS011;18221;38.704;0.152;2022-08-18T08:35:40;4.93;;;2.77;;
10174;SDS011;18221;38.704;0.152;2022-08-18T08:38:15;4.20;;;2.90;;
10174;SDS011;18221;38.704;0.152;2022-08-18T08:40:52;5.27;;;3.60;;
10174;SDS011;18221;38.704;0.152;2022-08-18T08:43:29;5.23;;;3.50;;
10174;SDS011;18221;38.704;0.152;2022-08-18T08:46:05;4.57;;;3.20;;
10174;SDS011;18221;38.704;0.152;2022-08-18T08:48:43;5.13;;;3.27;;
10174;SDS011;18221;38.704;0.152;2022-08-18T08:51:28;4.20;;;2.90;;
10174;SDS011;18221;38.704;0.152;2022-08-18T08:54:04;5.57;;;3.37;;
10174;SDS011;18221;38.704;0.152;2022-08-18T08:56:41;6.07;;;3.63;;
10174;SDS011;18221;38.704;0.152;2022-08-18T08:59:15;5.67;;;4.00;;
10174;SDS011;18221;38.704;0.152;2022-08-18T09:01:52;6.13;;;4.60;;
10174;SDS011;18221;38.704;0.152;2022-08-18T09:04:39;6.13;;;3.67;;
10174;SDS011;18221;38.704;0.152;2022-08-18T09:07:22;5.13;;;4.10;;
10174;SDS011;18221;38.704;0.152;2022-08-18T09:10:23;5.57;;;4.43;;
10174;SDS011;18221;38.704;0.152;2022-08-18T09:13:33;4.77;;;3.87;;
10174;SDS011;18221;38.704;0.152;2022-08-18T09:16:45;8.83;;;4.50;;
10174;SDS011;18221;38.704;0.152;2022-08-18T09:22:40;7.23;;;4.47;;
10174;SDS011;18221;38.704;0.152;2022-08-18T09:25:30;6.70;;;4.63;;
10174;SDS011;18221;38.704;0.152;2022-08-18T09:28:13;7.90;;;4.73;;
10174;SDS011;18221;38.704;0.152;2022-08-18T09:30:47;6.35;;;3.92;;
10174;SDS011;18221;38.704;0.152;2022-08-18T09:33:51;4.57;;;3.80;;
10174;SDS011;18221;38.704;0.152;2022-08-18T09:36:39;5.80;;;3.97;;
10174;SDS011;18221;38.704;0.152;2022-08-18T09:39:28;5.65;;;3.80;;
10174;SDS011;18221;38.704;0.152;2022-08-18T09:42:25;5.30;;;3.90;;
10174;SDS011;18221;38.704;0.152;2022-08-18T09:45:03;6.22;;;3.80;;
10174;SDS011;18221;38.704;0.152;2022-08-18T09:51:15;4.90;;;4.00;;
10174;SDS011;18221;38.704;0.152;2022-08-18T10:05:55;9.93;;;4.10;;
10174;SDS011;18221;38.704;0.152;2022-08-18T10:09:00;5.72;;;3.17;;
10174;SDS011;18221;38.704;0.152;2022-08-18T10:15:23;3.72;;;2.97;;
10174;SDS011;18221;38.704;0.152;2022-08-18T10:18:13;9.52;;;3.08;;
10174;SDS011;18221;38.704;0.152;2022-08-18T10:21:02;5.45;;;2.80;;
10174;SDS011;18221;38.704;0.152;2022-08-18T10:23:53;4.32;;;2.50;;
10174;SDS011;18221;38.704;0.152;2022-08-18T10:29:57;5.70;;;2.47;;
10174;SDS011;18221;38.704;0.152;2022-08-18T10:32:36;6.57;;;2.60;;
10174;SDS011;18221;38.704;0.152;2022-08-18T10:38:39;3.95;;;1.70;;
10174;SDS011;18221;38.704;0.152;2022-08-18T10:41:25;3.20;;;1.17;;
10174;SDS011;18221;38.704;0.152;2022-08-18T10:43:59;3.20;;;1.60;;
10174;SDS011;18221;38.704;0.152;2022-08-18T10:46:32;3.97;;;1.52;;
10174;SDS011;18221;38.704;0.152;2022-08-18T10:49:15;4.68;;;1.25;;
10174;SDS011;18221;38.704;0.152;2022-08-18T10:51:54;4.03;;;1.38;;
10174;SDS011;18221;38.704;0.152;2022-08-18T10:55:07;3.15;;;1.30;;
10174;SDS011;18221;38.704;0.152;2022-08-18T10:58:06;4.35;;;1.95;;
10174;SDS011;18221;38.704;0.152;2022-08-18T11:01:02;3.40;;;1.50;;
10174;SDS011;18221;38.704;0.152;2022-08-18T11:04:01;2.55;;;1.58;;
10174;SDS011;18221;38.704;0.152;2022-08-18T11:06:37;2.42;;;1.40;;
10174;SDS011;18221;38.704;0.152;2022-08-18T11:09:08;1.95;;;1.10;;
10174;SDS011;18221;38.704;0.152;2022-08-18T11:11:38;4.05;;;1.60;;
10174;SDS011;18221;38.704;0.152;2022-08-18T11:14:13;5.35;;;1.30;;
10174;SDS011;18221;38.704;0.152;2022-08-18T11:17:09;2.63;;;1.20;;
10174;SDS011;18221;38.704;0.152;2022-08-18T11:19:53;2.55;;;1.40;;
10174;SDS011;18221;38.704;0.152;2022-08-18T11:22:22;2.72;;;1.33;;
10174;SDS011;18221;38.704;0.152;2022-08-18T11:24:52;1.13;;;1.02;;
10174;SDS011;18221;38.704;0.152;2022-08-18T11:27:22;3.65;;;1.48;;
10174;SDS011;18221;38.704;0.152;2022-08-18T11:29:52;3.90;;;1.40;;
10174;SDS011;18221;38.704;0.152;2022-08-18T11:32:27;2.38;;;1.45;;
10174;SDS011;18221;38.704;0.152;2022-08-18T11:35:01;3.03;;;1.40;;
10174;SDS011;18221;38.704;0.152;2022-08-18T11:37:34;2.13;;;1.40;;
10174;SDS011;18221;38.704;0.152;2022-08-18T11:40:11;2.38;;;1.50;;
10174;SDS011;18221;38.704;0.152;2022-08-18T11:42:59;2.85;;;1.30;;
10174;SDS011;18221;38.704;0.152;2022-08-18T11:45:32;2.88;;;1.40;;
10174;SDS011;18221;38.704;0.152;2022-08-18T11:48:17;2.00;;;1.35;;
10174;SDS011;18221;38.704;0.152;2022-08-18T11:50:49;3.22;;;1.40;;
10174;SDS011;18221;38.704;0.152;2022-08-18T11:53:36;2.60;;;1.80;;
10174;SDS011;18221;38.704;0.152;2022-08-18T11:56:15;4.22;;;1.83;;
10174;SDS011;18221;38.704;0.152;2022-08-18T11:58:51;3.97;;;2.00;;
10174;SDS011;18221;38.704;0.152;2022-08-18T12:04:21;2.67;;;1.60;;
10174;SDS011;18221;38.704;0.152;2022-08-18T12:07:03;5.93;;;2.17;;
10174;SDS011;18221;38.704;0.152;2022-08-18T12:09:37;2.92;;;1.90;;
10174;SDS011;18221;38.704;0.152;2022-08-18T12:12:13;7.30;;;2.00;;
10174;SDS011;18221;38.704;0.152;2022-08-18T12:14:50;5.32;;;2.33;;
10174;SDS011;18221;38.704;0.152;2022-08-18T12:17:21;3.05;;;2.40;;
10174;SDS011;18221;38.704;0.152;2022-08-18T12:19:51;7.13;;;2.20;;
10174;SDS011;18221;38.704;0.152;2022-08-18T12:22:22;3.90;;;1.90;;
10174;SDS011;18221;38.704;0.152;2022-08-18T12:24:55;3.38;;;1.83;;
10174;SDS011;18221;38.704;0.152;2022-08-18T12:27:24;3.60;;;1.85;;
10174;SDS011;18221;38.704;0.152;2022-08-18T12:29:55;3.45;;;2.20;;
10174;SDS011;18221;38.704;0.152;2022-08-18T12:32:25;5.50;;;2.35;;
10174;SDS011;18221;38.704;0.152;2022-08-18T12:34:59;8.85;;;2.35;;
10174;SDS011;18221;38.704;0.152;2022-08-18T12:37:29;3.22;;;2.10;;
10174;SDS011;18221;38.704;0.152;2022-08-18T12:39:57;3.08;;;2.20;;
10174;SDS011;18221;38.704;0.152;2022-08-18T12:42:26;3.80;;;2.30;;
10174;SDS011;18221;38.704;0.152;2022-08-18T12:44:54;3.92;;;2.28;;
10174;SDS011;18221;38.704;0.152;2022-08-18T12:47:22;4.35;;;1.92;;
10174;SDS011;18221;38.704;0.152;2022-08-18T12:49:52;2.95;;;1.98;;
10174;SDS011;18221;38.704;0.152;2022-08-18T12:52:21;4.57;;;2.20;;
10174;SDS011;18221;38.704;0.152;2022-08-18T12:54:49;3.58;;;2.30;;
10174;SDS011;18221;38.704;0.152;2022-08-18T12:57:19;5.75;;;2.38;;
10174;SDS011;18221;38.704;0.152;2022-08-18T12:59:51;4.75;;;2.25;;
10174;SDS011;18221;38.704;0.152;2022-08-18T13:02:20;4.20;;;2.13;;
10174;SDS011;18221;38.704;0.152;2022-08-18T13:04:48;5.25;;;2.47;;
10174;SDS011;18221;38.704;0.152;2022-08-18T13:07:16;3.70;;;2.50;;
10174;SDS011;18221;38.704;0.152;2022-08-18T13:09:45;3.72;;;2.40;;
10174;SDS011;18221;38.704;0.152;2022-08-18T13:12:13;7.75;;;2.65;;
10174;SDS011;18221;38.704;0.152;2022-08-18T13:14:44;14.30;;;2.72;;
10174;SDS011;18221;38.704;0.152;2022-08-18T13:17:14;4.90;;;2.53;;
10174;SDS011;18221;38.704;0.152;2022-08-18T13:19:44;3.42;;;2.58;;
10174;SDS011;18221;38.704;0.152;2022-08-18T13:22:12;3.00;;;2.53;;
10174;SDS011;18221;38.704;0.152;2022-08-18T13:24:40;3.55;;;2.50;;
10174;SDS011;18221;38.704;0.152;2022-08-18T13:27:09;5.43;;;2.63;;
10174;SDS011;18221;38.704;0.152;2022-08-18T13:29:37;3.03;;;2.47;;
10174;SDS011;18221;38.704;0.152;2022-08-18T13:32:06;4.38;;;2.67;;
10174;SDS011;18221;38.704;0.152;2022-08-18T13:34:33;4.07;;;2.95;;
10174;SDS011;18221;38.704;0.152;2022-08-18T13:37:03;6.10;;;3.05;;
10174;SDS011;18221;38.704;0.152;2022-08-18T13:39:31;2.88;;;2.47;;
10174;SDS011;18221;38.704;0.152;2022-08-18T13:41:58;12.32;;;3.00;;
10174;SDS011;18221;38.704;0.152;2022-08-18T13:44:29;3.90;;;2.70;;
10174;SDS011;18221;38.704;0.152;2022-08-18T13:46:57;4.35;;;2.40;;
10174;SDS011;18221;38.704;0.152;2022-08-18T13:49:25;4.32;;;2.25;;
10174;SDS011;18221;38.704;0.152;2022-08-18T13:51:53;3.75;;;2.60;;
10174;SDS011;18221;38.704;0.152;2022-08-18T13:54:24;3.70;;;2.38;;
10174;SDS011;18221;38.704;0.152;2022-08-18T13:56:57;4.03;;;2.38;;
10174;SDS011;18221;38.704;0.152;2022-08-18T13:59:26;4.95;;;2.83;;
10174;SDS011;18221;38.704;0.152;2022-08-18T14:01:58;4.90;;;2.60;;
10174;SDS011;18221;38.704;0.152;2022-08-18T14:04:27;4.20;;;2.55;;
10174;SDS011;18221;38.704;0.152;2022-08-18T14:06:55;7.13;;;2.60;;
10174;SDS011;18221;38.704;0.152;2022-08-18T14:09:25;5.00;;;2.60;;
10174;SDS011;18221;38.704;0.152;2022-08-18T14:11:54;3.10;;;2.20;;
10174;SDS011;18221;38.704;0.152;2022-08-18T14:14:24;3.75;;;2.20;;
10174;SDS011;18221;38.704;0.152;2022-08-18T14:16:53;4.25;;;2.53;;
10174;SDS011;18221;38.704;0.152;2022-08-18T14:19:21;3.25;;;2.42;;
10174;SDS011;18221;38.704;0.152;2022-08-18T14:22:06;4.03;;;2.55;;
10174;SDS011;18221;38.704;0.152;2022-08-18T14:24:51;3.95;;;2.38;;
10174;SDS011;18221;38.704;0.152;2022-08-18T14:27:37;4.53;;;2.70;;
10174;SDS011;18221;38.704;0.152;2022-08-18T14:30:07;4.35;;;2.40;;
10174;SDS011;18221;38.704;0.152;2022-08-18T14:32:40;2.95;;;2.15;;
10174;SDS011;18221;38.704;0.152;2022-08-18T14:35:09;3.67;;;2.33;;
10174;SDS011;18221;38.704;0.152;2022-08-18T14:37:41;3.47;;;2.60;;
10174;SDS011;18221;38.704;0.152;2022-08-18T14:40:09;4.10;;;2.47;;
10174;SDS011;18221;38.704;0.152;2022-08-18T14:42:37;3.95;;;2.40;;
10174;SDS011;18221;38.704;0.152;2022-08-18T14:45:07;2.33;;;2.00;;
10174;SDS011;18221;38.704;0.152;2022-08-18T14:47:40;3.53;;;1.90;;
10174;SDS011;18221;38.704;0.152;2022-08-18T14:50:08;4.07;;;2.20;;
10174;SDS011;18221;38.704;0.152;2022-08-18T14:52:38;5.35;;;2.50;;
10174;SDS011;18221;38.704;0.152;2022-08-18T14:55:07;2.35;;;1.90;;
10174;SDS011;18221;38.704;0.152;2022-08-18T14:57:37;3.35;;;2.13;;
10174;SDS011;18221;38.704;0.152;2022-08-18T15:00:06;2.30;;;1.83;;
10174;SDS011;18221;38.704;0.152;2022-08-18T15:02:41;5.07;;;2.20;;
10174;SDS011;18221;38.704;0.152;2022-08-18T15:05:10;2.40;;;1.95;;
10174;SDS011;18221;38.704;0.152;2022-08-18T15:07:39;5.03;;;2.30;;
10174;SDS011;18221;38.704;0.152;2022-08-18T15:10:08;2.30;;;1.75;;
10174;SDS011;18221;38.704;0.152;2022-08-18T15:12:38;2.33;;;1.92;;
10174;SDS011;18221;38.704;0.152;2022-08-18T15:15:08;3.05;;;2.10;;
10174;SDS011;18221;38.704;0.152;2022-08-18T15:17:39;5.97;;;2.10;;
10174;SDS011;18221;38.704;0.152;2022-08-18T15:20:09;4.10;;;2.00;;
10174;SDS011;18221;38.704;0.152;2022-08-18T15:22:38;3.42;;;1.80;;
10174;SDS011;18221;38.704;0.152;2022-08-18T15:25:24;3.33;;;1.95;;
10174;SDS011;18221;38.704;0.152;2022-08-18T15:28:09;2.00;;;1.77;;
10174;SDS011;18221;38.704;0.152;2022-08-18T15:30:42;4.22;;;1.90;;
10174;SDS011;18221;38.704;0.152;2022-08-18T15:33:12;3.33;;;1.90;;
10174;SDS011;18221;38.704;0.152;2022-08-18T15:35:40;2.30;;;1.77;;
10174;SDS011;18221;38.704;0.152;2022-08-18T15:38:10;3.30;;;1.80;;
10174;SDS011;18221;38.704;0.152;2022-08-18T15:40:45;3.22;;;1.60;;
10174;SDS011;18221;38.704;0.152;2022-08-18T15:43:16;3.17;;;1.83;;
10174;SDS011;18221;38.704;0.152;2022-08-18T15:45:44;2.72;;;1.77;;
10174;SDS011;18221;38.704;0.152;2022-08-18T15:48:15;3.88;;;1.80;;
10174;SDS011;18221;38.704;0.152;2022-08-18T15:50:46;3.75;;;1.63;;
10174;SDS011;18221;38.704;0.152;2022-08-18T15:53:16;2.72;;;1.90;;
10174;SDS011;18221;38.704;0.152;2022-08-18T15:55:47;2.90;;;1.70;;
10174;SDS011;18221;38.704;0.152;2022-08-18T15:58:15;2.92;;;1.88;;
10174;SDS011;18221;38.704;0.152;2022-08-18T16:00:45;4.95;;;1.80;;
10174;SDS011;18221;38.704;0.152;2022-08-18T16:03:15;2.65;;;1.92;;
10174;SDS011;18221;38.704;0.152;2022-08-18T16:05:46;3.40;;;1.77;;
10174;SDS011;18221;38.704;0.152;2022-08-18T16:08:17;4.25;;;1.80;;
10174;SDS011;18221;38.704;0.152;2022-08-18T16:10:47;3.10;;;1.80;;